createdAt,value
2023-03-24T00:00:38.111Z,38.35
2023-03-24T00:01:38.079Z,39.48
2023-03-24T00:02:38.218Z,47.21
2023-03-24T00:03:38.267Z,38.83
2023-03-24T00:04:38.107Z,38.99
2023-03-24T00:05:38.129Z,40.12
2023-03-24T00:06:38.053Z,39.32
2023-03-24T00:07:38.315Z,39.32
2023-03-24T00:08:39.142Z,38.67
2023-03-24T00:09:38.034Z,40.12
2023-03-24T00:10:38.066Z,39.48
2023-03-24T00:11:38.007Z,39.16
2023-03-24T00:12:38.004Z,39.48
2023-03-24T00:13:38.036Z,40.44
2023-03-24T00:14:37.984Z,41.25
2023-03-24T00:15:38.080Z,42.06
2023-03-24T00:16:37.973Z,41.57
2023-03-24T00:17:37.988Z,42.54
2023-03-24T00:18:37.966Z,43.99
2023-03-24T00:19:37.955Z,44.96
2023-03-24T00:20:37.963Z,43.99
2023-03-24T00:21:37.942Z,43.18
2023-03-24T00:22:37.915Z,43.99
2023-03-24T00:23:37.921Z,44.63
2023-03-24T00:24:37.940Z,44.79
2023-03-24T00:25:37.931Z,45.76
2023-03-24T00:26:37.880Z,46.41
2023-03-24T00:27:37.881Z,46.57
2023-03-24T00:28:37.863Z,47.21
2023-03-24T00:29:37.859Z,46.08
2023-03-24T00:30:37.850Z,45.44
2023-03-24T00:31:37.884Z,47.05
2023-03-24T00:32:37.893Z,46.41
2023-03-24T00:33:37.837Z,44.96
2023-03-24T00:34:37.907Z,46.25
2023-03-24T00:35:37.838Z,40.61
2023-03-24T00:36:37.843Z,39.32
2023-03-24T00:37:37.804Z,40.61
2023-03-24T00:38:37.803Z,40.61
2023-03-24T00:39:37.810Z,42.22
2023-03-24T00:40:37.784Z,43.51
2023-03-24T00:41:37.794Z,41.73
2023-03-24T00:42:37.775Z,40.77
2023-03-24T00:43:37.760Z,39.80
2023-03-24T00:44:37.789Z,40.12
2023-03-24T00:45:37.752Z,40.93
2023-03-24T00:46:37.822Z,40.77
2023-03-24T00:47:37.740Z,41.73
2023-03-24T00:48:37.713Z,42.54
2023-03-24T00:49:37.715Z,42.22
2023-03-24T00:50:37.700Z,44.63
2023-03-24T00:51:37.732Z,43.02
2023-03-24T00:52:38.696Z,42.86
2023-03-24T00:53:37.678Z,44.96
2023-03-24T00:54:37.680Z,49.79
2023-03-24T00:55:37.678Z,51.56
2023-03-24T00:56:37.896Z,52.53
2023-03-24T00:57:37.644Z,49.47
2023-03-24T00:58:37.641Z,47.70
2023-03-24T00:59:37.642Z,46.73
2023-03-24T01:00:37.670Z,47.05
2023-03-24T01:01:37.780Z,45.12
2023-03-24T01:02:37.688Z,43.99
2023-03-24T01:03:37.617Z,43.83
2023-03-24T01:04:37.609Z,44.15
2023-03-24T01:05:37.592Z,43.67
2023-03-24T01:06:37.661Z,43.99
2023-03-24T01:07:37.593Z,43.51
2023-03-24T01:08:37.609Z,42.86
2023-03-24T01:09:37.562Z,43.34
2023-03-24T01:10:37.563Z,43.18
2023-03-24T01:11:37.584Z,43.99
2023-03-24T01:12:37.543Z,44.63
2023-03-24T01:13:37.531Z,43.02
2023-03-24T01:14:37.523Z,41.57
2023-03-24T01:15:37.563Z,41.41
2023-03-24T01:16:37.538Z,39.96
2023-03-24T01:17:37.550Z,40.44
2023-03-24T01:18:37.482Z,39.48
2023-03-24T01:19:38.471Z,38.67
2023-03-24T01:20:37.468Z,38.83
2023-03-24T01:21:37.479Z,39.16
2023-03-24T01:22:37.475Z,43.18
2023-03-24T01:23:37.446Z,39.96
2023-03-24T01:24:37.449Z,39.96
2023-03-24T01:25:37.435Z,40.61
2023-03-24T01:26:37.454Z,40.61
2023-03-24T01:27:37.437Z,39.16
2023-03-24T01:28:37.391Z,38.51
2023-03-24T01:29:37.383Z,38.99
2023-03-24T01:30:37.397Z,43.34
2023-03-24T01:31:37.438Z,38.83
2023-03-24T01:32:37.464Z,51.56
2023-03-24T01:33:37.367Z,52.21
2023-03-24T01:34:37.368Z,51.88
2023-03-24T01:35:37.388Z,52.37
2023-03-24T01:36:37.403Z,52.69
2023-03-24T01:37:37.353Z,54.46
2023-03-24T01:38:37.334Z,52.85
2023-03-24T01:39:37.331Z,53.66
2023-03-24T01:40:37.327Z,52.05
2023-03-24T01:41:37.361Z,36.25
2023-03-24T01:42:37.296Z,38.03
2023-03-24T01:43:37.306Z,38.03
2023-03-24T01:44:37.324Z,37.38
2023-03-24T01:45:37.359Z,41.89
2023-03-24T01:46:37.305Z,38.83
2023-03-24T01:47:37.316Z,38.35
2023-03-24T01:48:37.269Z,38.19
2023-03-24T01:49:37.254Z,37.22
2023-03-24T01:50:37.248Z,39.80
2023-03-24T01:51:37.273Z,39.64
2023-03-24T01:52:37.224Z,41.09
2023-03-24T01:53:37.242Z,39.64
2023-03-24T01:54:37.233Z,38.99
2023-03-24T01:55:37.217Z,39.80
2023-03-24T01:56:37.230Z,39.64
2023-03-24T01:57:37.199Z,39.96
2023-03-24T01:58:37.255Z,42.06
2023-03-24T01:59:37.198Z,40.61
2023-03-24T02:00:37.167Z,39.96
2023-03-24T02:01:38.264Z,39.32
2023-03-24T02:02:37.177Z,39.32
2023-03-24T02:03:37.175Z,38.99
2023-03-24T02:04:37.164Z,39.32
2023-03-24T02:05:37.139Z,38.83
2023-03-24T02:06:37.226Z,38.83
2023-03-24T02:07:37.126Z,39.64
2023-03-24T02:08:37.102Z,39.64
2023-03-24T02:09:37.119Z,38.67
2023-03-24T02:10:37.087Z,38.03
2023-03-24T02:11:37.114Z,40.44
2023-03-24T02:12:37.094Z,38.83
2023-03-24T02:13:37.074Z,38.67
2023-03-24T02:14:37.083Z,38.03
2023-03-24T02:15:37.051Z,37.71
2023-03-24T02:16:37.165Z,38.19
2023-03-24T02:17:37.063Z,38.67
2023-03-24T02:18:37.058Z,38.83
2023-03-24T02:19:37.085Z,37.87
2023-03-24T02:20:37.015Z,38.03
2023-03-24T02:21:37.038Z,38.03
2023-03-24T02:22:37.063Z,38.99
2023-03-24T02:23:37.000Z,38.83
2023-03-24T02:24:36.996Z,41.89
2023-03-24T02:25:37.874Z,43.99
2023-03-24T02:26:36.994Z,40.44
2023-03-24T02:27:36.988Z,40.77
2023-03-24T02:28:36.986Z,39.32
2023-03-24T02:29:36.958Z,39.80
2023-03-24T02:30:36.941Z,43.18
2023-03-24T02:31:36.984Z,41.09
2023-03-24T02:32:36.985Z,39.32
2023-03-24T02:33:36.937Z,38.19
2023-03-24T02:34:36.947Z,37.71
2023-03-24T02:35:36.920Z,38.51
2023-03-24T02:36:36.926Z,38.99
2023-03-24T02:37:36.943Z,38.51
2023-03-24T02:38:36.914Z,39.64
2023-03-24T02:39:36.899Z,38.83
2023-03-24T02:40:36.875Z,38.19
2023-03-24T02:41:36.867Z,39.96
2023-03-24T02:42:36.892Z,39.80
2023-03-24T02:43:36.853Z,40.44
2023-03-24T02:44:36.882Z,39.16
2023-03-24T02:45:36.849Z,40.28
2023-03-24T02:46:36.837Z,39.64
2023-03-24T02:47:37.902Z,38.83
2023-03-24T02:48:36.817Z,39.16
2023-03-24T02:49:36.804Z,40.44
2023-03-24T02:50:36.798Z,38.83
2023-03-24T02:51:36.777Z,39.64
2023-03-24T02:52:36.790Z,39.80
2023-03-24T02:53:36.767Z,39.32
2023-03-24T02:54:36.748Z,38.99
2023-03-24T02:55:36.781Z,41.25
2023-03-24T02:56:36.811Z,38.83
2023-03-24T02:57:36.769Z,38.83
2023-03-24T02:58:36.739Z,39.32
2023-03-24T02:59:36.723Z,39.32
2023-03-24T03:00:36.720Z,39.16
2023-03-24T03:01:36.807Z,38.83
2023-03-24T03:02:36.779Z,39.32
2023-03-24T03:03:36.708Z,38.51
2023-03-24T03:04:36.737Z,40.77
2023-03-24T03:05:36.661Z,44.96
2023-03-24T03:06:36.672Z,40.77
2023-03-24T03:07:36.705Z,42.06
2023-03-24T03:08:36.685Z,39.96
2023-03-24T03:09:36.673Z,38.83
2023-03-24T03:10:36.633Z,40.44
2023-03-24T03:11:36.621Z,39.96
2023-03-24T03:12:36.635Z,41.41
2023-03-24T03:13:36.680Z,39.80
2023-03-24T03:14:36.622Z,38.99
2023-03-24T03:15:36.691Z,38.83
2023-03-24T03:16:36.602Z,38.51
2023-03-24T03:17:36.627Z,40.44
2023-03-24T03:18:36.663Z,57.20
2023-03-24T03:19:36.571Z,43.99
2023-03-24T03:20:36.560Z,39.16
2023-03-24T03:21:36.557Z,42.06
2023-03-24T03:22:36.567Z,39.80
2023-03-24T03:23:36.566Z,39.32
2023-03-24T03:24:36.534Z,39.32
2023-03-24T03:25:36.537Z,39.64
2023-03-24T03:26:36.516Z,42.22
2023-03-24T03:27:36.516Z,40.61
2023-03-24T03:28:36.541Z,40.12
2023-03-24T03:29:36.513Z,40.61
2023-03-24T03:30:36.492Z,40.93
2023-03-24T03:31:36.584Z,41.89
2023-03-24T03:32:36.477Z,40.93
2023-03-24T03:33:36.498Z,52.69
2023-03-24T03:34:36.478Z,50.92
2023-03-24T03:35:36.478Z,51.40
2023-03-24T03:36:36.430Z,53.66
2023-03-24T03:37:36.441Z,53.33
2023-03-24T03:38:36.455Z,44.47
2023-03-24T03:39:36.463Z,38.83
2023-03-24T03:40:36.429Z,42.38
2023-03-24T03:41:36.420Z,41.25
2023-03-24T03:42:36.417Z,41.89
2023-03-24T03:43:36.436Z,41.73
2023-03-24T03:44:36.411Z,46.25
2023-03-24T03:45:36.409Z,41.09
2023-03-24T03:46:36.489Z,42.38
2023-03-24T03:47:36.404Z,40.61
2023-03-24T03:48:36.415Z,43.18
2023-03-24T03:49:36.373Z,45.12
2023-03-24T03:50:36.357Z,40.77
2023-03-24T03:51:37.379Z,45.12
2023-03-24T03:52:36.373Z,39.48
2023-03-24T03:53:36.372Z,40.44
2023-03-24T03:54:36.333Z,39.64
2023-03-24T03:55:36.315Z,41.89
2023-03-24T03:56:36.360Z,47.05
2023-03-24T03:57:36.315Z,40.77
2023-03-24T03:58:36.337Z,41.73
2023-03-24T03:59:36.288Z,43.02
2023-03-24T04:00:36.278Z,47.86
2023-03-24T04:01:36.295Z,40.44
2023-03-24T04:02:36.319Z,45.12
2023-03-24T04:03:36.359Z,41.41
2023-03-24T04:04:36.269Z,42.54
2023-03-24T04:05:36.242Z,40.28
2023-03-24T04:06:36.241Z,41.09
2023-03-24T04:07:36.230Z,40.28
2023-03-24T04:08:36.239Z,39.64
2023-03-24T04:09:36.236Z,47.86
2023-03-24T04:10:36.194Z,47.86
2023-03-24T04:11:36.223Z,42.86
2023-03-24T04:12:36.201Z,43.34
2023-03-24T04:13:36.171Z,41.09
2023-03-24T04:14:36.201Z,45.60
2023-03-24T04:15:36.174Z,46.08
2023-03-24T04:16:36.218Z,41.25
2023-03-24T04:17:36.182Z,45.60
2023-03-24T04:18:36.145Z,46.73
2023-03-24T04:19:36.161Z,44.31
2023-03-24T04:20:36.143Z,43.67
2023-03-24T04:21:36.140Z,42.54
2023-03-24T04:22:36.152Z,41.89
2023-03-24T04:23:36.125Z,47.86
2023-03-24T04:24:36.106Z,45.92
2023-03-24T04:25:36.104Z,48.50
2023-03-24T04:26:36.084Z,46.08
2023-03-24T04:27:36.084Z,49.15
2023-03-24T04:28:36.067Z,44.79
2023-03-24T04:29:36.093Z,43.51
2023-03-24T04:30:36.066Z,45.60
2023-03-24T04:31:36.067Z,49.47
2023-03-24T04:32:36.072Z,48.18
2023-03-24T04:33:36.026Z,48.34
2023-03-24T04:34:36.053Z,51.40
2023-03-24T04:35:36.022Z,53.66
2023-03-24T04:36:36.028Z,48.82
2023-03-24T04:37:36.058Z,47.05
2023-03-24T04:38:35.994Z,51.40
2023-03-24T04:39:36.024Z,48.50
2023-03-24T04:40:36.015Z,47.37
2023-03-24T04:41:35.981Z,48.82
2023-03-24T04:42:35.992Z,54.95
2023-03-24T04:43:35.978Z,48.18
2023-03-24T04:44:36.021Z,51.08
2023-03-24T04:45:36.985Z,49.79
2023-03-24T04:46:35.949Z,45.76
2023-03-24T04:47:35.950Z,50.60
2023-03-24T04:48:35.956Z,52.05
2023-03-24T04:49:35.969Z,53.82
2023-03-24T04:50:35.928Z,55.91
2023-03-24T04:51:35.901Z,54.46
2023-03-24T04:52:35.901Z,46.08
2023-03-24T04:53:35.882Z,40.77
2023-03-24T04:54:35.924Z,51.08
2023-03-24T04:55:35.902Z,48.34
2023-03-24T04:56:35.899Z,47.21
2023-03-24T04:57:35.855Z,48.50
2023-03-24T04:58:35.853Z,47.70
2023-03-24T04:59:35.877Z,49.31
2023-03-24T05:00:35.868Z,47.86
2023-03-24T05:01:35.834Z,46.73
2023-03-24T05:02:35.861Z,46.57
2023-03-24T05:03:35.859Z,45.28
2023-03-24T05:04:35.791Z,44.79
2023-03-24T05:05:35.818Z,46.08
2023-03-24T05:06:35.780Z,46.25
2023-03-24T05:07:35.786Z,46.73
2023-03-24T05:08:35.776Z,48.34
2023-03-24T05:09:35.772Z,49.15
2023-03-24T05:10:35.780Z,50.60
2023-03-24T05:11:35.742Z,50.92
2023-03-24T05:12:35.744Z,51.24
2023-03-24T05:13:35.714Z,54.30
2023-03-24T05:14:35.738Z,53.66
2023-03-24T05:15:35.748Z,51.88
2023-03-24T05:16:35.809Z,52.37
2023-03-24T05:17:35.731Z,52.37
2023-03-24T05:18:35.701Z,53.01
2023-03-24T05:19:35.695Z,54.14
2023-03-24T05:20:35.715Z,53.01
2023-03-24T05:21:35.679Z,53.82
2023-03-24T05:22:35.662Z,53.82
2023-03-24T05:23:35.679Z,51.08
2023-03-24T05:24:35.695Z,51.72
2023-03-24T05:25:35.682Z,51.24
2023-03-24T05:26:35.626Z,53.17
2023-03-24T05:27:35.614Z,48.66
2023-03-24T05:28:36.632Z,53.82
2023-03-24T05:29:35.611Z,50.92
2023-03-24T05:30:35.711Z,50.92
2023-03-24T05:31:35.605Z,50.27
2023-03-24T05:32:35.601Z,53.82
2023-03-24T05:33:35.612Z,54.30
2023-03-24T05:34:35.591Z,53.01
2023-03-24T05:35:35.606Z,48.82
2023-03-24T05:36:35.581Z,49.31
2023-03-24T05:37:35.563Z,54.95
2023-03-24T05:38:35.556Z,53.01
2023-03-24T05:39:35.542Z,53.66
2023-03-24T05:40:35.562Z,47.86
2023-03-24T05:41:35.520Z,49.79
2023-03-24T05:42:35.539Z,56.24
2023-03-24T05:43:35.592Z,49.79
2023-03-24T05:44:35.492Z,47.37
2023-03-24T05:45:35.527Z,53.98
2023-03-24T05:46:35.550Z,47.70
2023-03-24T05:47:35.511Z,46.08
2023-03-24T05:48:35.515Z,53.98
2023-03-24T05:49:35.453Z,46.89
2023-03-24T05:50:35.482Z,51.88
2023-03-24T05:51:35.465Z,49.15
2023-03-24T05:52:35.425Z,55.11
2023-03-24T05:53:35.459Z,52.85
2023-03-24T05:54:35.413Z,49.31
2023-03-24T05:55:35.480Z,49.95
2023-03-24T05:56:35.444Z,47.21
2023-03-24T05:57:36.406Z,48.02
2023-03-24T05:58:35.398Z,46.73
2023-03-24T05:59:35.382Z,52.21
2023-03-24T06:00:35.402Z,52.37
2023-03-24T06:01:35.359Z,52.53
2023-03-24T06:02:35.404Z,47.21
2023-03-24T06:03:35.498Z,49.47
2023-03-24T06:04:35.442Z,50.27
2023-03-24T06:05:36.372Z,52.21
2023-03-24T06:06:35.355Z,48.82
2023-03-24T06:07:35.314Z,46.08
2023-03-24T06:08:35.328Z,46.73
2023-03-24T06:09:35.318Z,52.37
2023-03-24T06:10:35.494Z,54.95
2023-03-24T06:11:35.281Z,49.31
2023-03-24T06:12:35.294Z,54.79
2023-03-24T06:13:35.277Z,52.69
2023-03-24T06:14:35.260Z,51.56
2023-03-24T06:15:35.346Z,53.82
2023-03-24T06:16:35.308Z,53.98
2023-03-24T06:17:35.269Z,52.53
2023-03-24T06:18:35.257Z,48.98
2023-03-24T06:19:35.233Z,49.95
2023-03-24T06:20:35.241Z,54.46
2023-03-24T06:21:35.458Z,49.95
2023-03-24T06:22:36.215Z,51.56
2023-03-24T06:23:35.214Z,47.37
2023-03-24T06:24:35.185Z,49.31
2023-03-24T06:25:35.190Z,45.92
2023-03-24T06:26:35.190Z,53.98
2023-03-24T06:27:35.177Z,48.50
2023-03-24T06:28:35.172Z,54.46
2023-03-24T06:29:35.159Z,50.92
2023-03-24T06:30:35.166Z,53.50
2023-03-24T06:31:35.242Z,52.69
2023-03-24T06:32:35.141Z,46.89
2023-03-24T06:33:36.131Z,53.66
2023-03-24T06:34:35.107Z,49.31
2023-03-24T06:35:35.100Z,54.95
2023-03-24T06:36:35.110Z,50.27
2023-03-24T06:37:35.098Z,51.08
2023-03-24T06:38:35.081Z,49.63
2023-03-24T06:39:35.089Z,51.56
2023-03-24T06:40:35.072Z,51.40
2023-03-24T06:41:35.085Z,50.76
2023-03-24T06:42:35.045Z,52.69
2023-03-24T06:43:35.043Z,53.66
2023-03-24T06:44:35.029Z,51.72
2023-03-24T06:45:35.016Z,53.33
2023-03-24T06:46:35.084Z,50.92
2023-03-24T06:47:35.031Z,50.92
2023-03-24T06:48:35.014Z,54.30
2023-03-24T06:49:35.010Z,49.15
2023-03-24T06:50:34.987Z,49.47
2023-03-24T06:51:35.016Z,48.34
2023-03-24T06:52:34.987Z,50.43
2023-03-24T06:53:34.967Z,52.53
2023-03-24T06:54:34.969Z,45.92
2023-03-24T06:55:34.945Z,46.25
2023-03-24T06:56:34.987Z,52.21
2023-03-24T06:57:34.931Z,49.79
2023-03-24T06:58:34.915Z,52.53
2023-03-24T06:59:34.916Z,50.92
2023-03-24T07:00:34.933Z,53.66
2023-03-24T07:01:35.018Z,53.50
2023-03-24T07:02:34.944Z,53.50
2023-03-24T07:03:34.991Z,53.17
2023-03-24T07:04:34.892Z,53.33
2023-03-24T07:05:35.813Z,47.37
2023-03-24T07:06:43.223Z,53.33
2023-03-24T07:08:08.351Z,50.76
2023-03-24T07:08:38.500Z,47.05
2023-03-24T07:09:35.853Z,52.21
2023-03-24T07:10:34.823Z,50.92
2023-03-24T07:11:34.846Z,48.18
2023-03-24T07:12:34.808Z,51.72
2023-03-24T07:13:34.854Z,54.79
2023-03-24T07:14:34.817Z,46.73
2023-03-24T07:15:34.792Z,46.25
2023-03-24T07:16:34.846Z,49.31
2023-03-24T07:17:34.809Z,45.12
2023-03-24T07:18:34.776Z,46.41
2023-03-24T07:19:34.774Z,53.33
2023-03-24T07:20:34.763Z,44.63
2023-03-24T07:21:34.766Z,46.25
2023-03-24T07:22:34.745Z,44.15
2023-03-24T07:23:34.758Z,46.57
2023-03-24T07:24:34.741Z,47.70
2023-03-24T07:25:34.727Z,41.57
2023-03-24T07:26:34.741Z,48.98
2023-03-24T07:27:34.709Z,42.86
2023-03-24T07:28:34.731Z,48.66
2023-03-24T07:29:34.682Z,44.63
2023-03-24T07:30:40.650Z,46.25
2023-03-24T07:31:36.701Z,46.89
2023-03-24T07:32:34.784Z,43.67
2023-03-24T07:33:34.651Z,47.21
2023-03-24T07:34:34.646Z,41.89
2023-03-24T07:35:34.681Z,48.02
2023-03-24T07:36:34.659Z,48.50
2023-03-24T07:37:34.625Z,46.25
2023-03-24T07:38:34.667Z,53.82
2023-03-24T07:39:34.620Z,46.73
2023-03-24T07:40:34.649Z,48.34
2023-03-24T07:41:34.708Z,52.69
2023-03-24T07:42:34.599Z,49.47
2023-03-24T07:43:34.601Z,48.98
2023-03-24T07:44:34.584Z,47.05
2023-03-24T07:45:34.638Z,47.05
2023-03-24T07:46:34.661Z,45.76
2023-03-24T07:47:34.600Z,48.66
2023-03-24T07:48:34.542Z,43.99
2023-03-24T07:49:34.552Z,49.15
2023-03-24T07:50:34.556Z,53.17
2023-03-24T07:51:37.799Z,46.73
2023-03-24T07:52:36.510Z,49.15
2023-03-24T07:53:34.504Z,47.05
2023-03-24T07:54:34.551Z,50.27
2023-03-24T07:55:34.498Z,49.47
2023-03-24T07:56:34.557Z,45.92
2023-03-24T07:57:35.350Z,46.41
2023-03-24T07:58:34.469Z,45.60
2023-03-24T07:59:34.492Z,41.73
2023-03-24T08:00:34.462Z,47.86
2023-03-24T08:01:35.509Z,48.50
2023-03-24T08:02:34.504Z,44.15
2023-03-24T08:03:34.553Z,48.82
2023-03-24T08:04:34.452Z,50.43
2023-03-24T08:05:34.416Z,47.21
2023-03-24T08:06:34.402Z,41.89
2023-03-24T08:07:34.716Z,43.02
2023-03-24T08:08:34.400Z,47.70
2023-03-24T08:09:34.387Z,44.47
2023-03-24T08:10:34.382Z,42.54
2023-03-24T08:11:34.360Z,47.37
2023-03-24T08:12:34.411Z,40.93
2023-03-24T08:13:34.365Z,49.79
2023-03-24T08:14:34.352Z,50.27
2023-03-24T08:15:35.340Z,47.53
2023-03-24T08:16:34.678Z,44.31
2023-03-24T08:17:34.380Z,50.11
2023-03-24T08:18:34.373Z,47.05
2023-03-24T08:19:34.653Z,45.12
2023-03-24T08:20:34.315Z,43.51
2023-03-24T08:21:34.304Z,51.08
2023-03-24T08:22:34.374Z,43.99
2023-03-24T08:23:34.278Z,45.60
2023-03-24T08:24:34.297Z,43.51
2023-03-24T08:25:34.279Z,43.51
2023-03-24T08:26:34.264Z,51.88
2023-03-24T08:27:34.288Z,43.02
2023-03-24T08:28:34.249Z,44.15
2023-03-24T08:29:34.302Z,47.21
2023-03-24T08:30:34.257Z,50.27
2023-03-24T08:31:34.259Z,47.37
2023-03-24T08:32:34.292Z,48.34
2023-03-24T08:33:34.207Z,52.53
2023-03-24T08:34:34.208Z,53.17
2023-03-24T08:35:34.207Z,46.57
2023-03-24T08:36:34.568Z,49.79
2023-03-24T08:37:34.221Z,44.47
2023-03-24T08:38:34.195Z,49.63
2023-03-24T08:39:34.179Z,49.79
2023-03-24T08:40:34.156Z,45.60
2023-03-24T08:41:34.147Z,43.99
2023-03-24T08:42:34.172Z,50.60
2023-03-24T08:43:34.150Z,46.73
2023-03-24T08:44:34.117Z,52.21
2023-03-24T08:45:34.115Z,56.07
2023-03-24T08:46:34.185Z,53.33
2023-03-24T08:47:34.151Z,53.33
2023-03-24T08:48:34.088Z,48.02
2023-03-24T08:49:34.089Z,52.85
2023-03-24T08:50:34.077Z,50.27
2023-03-24T08:51:34.069Z,48.98
2023-03-24T08:52:34.056Z,50.11
2023-03-24T08:53:34.075Z,48.34
2023-03-24T08:54:35.075Z,49.31
2023-03-24T08:55:34.043Z,51.88
2023-03-24T08:56:34.031Z,51.88
2023-03-24T08:57:34.022Z,52.69
2023-03-24T08:58:34.040Z,48.18
2023-03-24T08:59:34.013Z,48.34
2023-03-24T09:00:33.985Z,52.37
2023-03-24T09:01:34.024Z,47.37
2023-03-24T09:02:34.006Z,48.82
2023-03-24T09:03:34.002Z,47.70
2023-03-24T09:04:34.000Z,53.01
2023-03-24T09:05:44.109Z,51.88
2023-03-24T09:06:35.963Z,51.24
2023-03-24T09:07:33.940Z,51.88
2023-03-24T09:08:33.969Z,50.60
2023-03-24T09:09:33.936Z,48.50
2023-03-24T09:10:33.928Z,47.53
2023-03-24T09:11:33.910Z,50.60
2023-03-24T09:12:33.914Z,50.11
2023-03-24T09:13:33.951Z,56.07
2023-03-24T09:14:33.887Z,50.43
2023-03-24T09:15:33.924Z,47.05
2023-03-24T09:16:33.956Z,50.76
2023-03-24T09:17:33.900Z,48.50
2023-03-24T09:18:33.926Z,48.50
2023-03-24T09:19:33.879Z,48.98
2023-03-24T09:20:33.858Z,47.53
2023-03-24T09:21:33.838Z,44.96
2023-03-24T09:22:33.960Z,53.66
2023-03-24T09:23:33.873Z,51.88
2023-03-24T09:24:33.804Z,49.31
2023-03-24T09:25:33.820Z,48.18
2023-03-24T09:26:33.812Z,48.66
2023-03-24T09:27:33.812Z,46.89
2023-03-24T09:28:33.802Z,48.66
2023-03-24T09:29:33.789Z,50.27
2023-03-24T09:30:35.130Z,48.02
2023-03-24T09:31:33.802Z,47.86
2023-03-24T09:32:33.798Z,50.92
2023-03-24T09:33:33.782Z,52.37
2023-03-24T09:34:33.749Z,46.89
2023-03-24T09:35:33.754Z,48.02
2023-03-24T09:36:33.727Z,53.33
2023-03-24T09:37:33.723Z,45.60
2023-03-24T09:38:33.779Z,43.02
2023-03-24T09:39:33.702Z,52.85
2023-03-24T09:40:33.718Z,48.18
2023-03-24T09:41:34.655Z,47.53
2023-03-24T09:42:34.667Z,52.21
2023-03-24T09:43:33.708Z,48.82
2023-03-24T09:44:33.649Z,48.98
2023-03-24T09:45:33.651Z,50.76
2023-03-24T09:46:33.693Z,49.79
2023-03-24T09:47:33.687Z,45.76
2023-03-24T09:48:33.630Z,48.18
2023-03-24T09:49:33.838Z,50.27
2023-03-24T09:50:33.608Z,48.18
2023-03-24T09:51:33.615Z,49.47
2023-03-24T09:52:33.607Z,48.98
2023-03-24T09:53:33.618Z,54.46
2023-03-24T09:54:33.600Z,51.88
2023-03-24T09:55:33.591Z,50.27
2023-03-24T09:56:33.627Z,51.40
2023-03-24T09:57:33.564Z,53.50
2023-03-24T09:58:33.675Z,51.72
2023-03-24T09:59:33.588Z,51.08
2023-03-24T10:00:33.590Z,54.95
2023-03-24T10:01:33.548Z,49.63
2023-03-24T10:02:33.592Z,50.92
2023-03-24T10:03:33.650Z,51.56
2023-03-24T10:04:33.545Z,50.92
2023-03-24T10:05:33.522Z,50.76
2023-03-24T10:06:33.509Z,51.24
2023-03-24T10:07:33.514Z,48.18
2023-03-24T10:08:33.499Z,49.79
2023-03-24T10:09:33.528Z,49.79
2023-03-24T10:10:33.462Z,53.01
2023-03-24T10:11:33.456Z,52.05
2023-03-24T10:12:34.451Z,53.01
2023-03-24T10:13:33.438Z,53.82
2023-03-24T10:14:33.472Z,50.11
2023-03-24T10:15:37.869Z,50.11
2023-03-24T10:16:35.455Z,48.02
2023-03-24T10:17:33.452Z,51.72
2023-03-24T10:18:33.406Z,55.59
2023-03-24T10:19:33.429Z,52.53
2023-03-24T10:20:33.378Z,50.11
2023-03-24T10:21:33.391Z,54.30
2023-03-24T10:22:33.441Z,52.53
2023-03-24T10:23:33.427Z,51.24
2023-03-24T10:24:33.359Z,51.40
2023-03-24T10:25:33.339Z,45.76
2023-03-24T10:26:33.320Z,49.31
2023-03-24T10:27:33.323Z,51.72
2023-03-24T10:28:33.311Z,46.25
2023-03-24T10:29:33.328Z,44.96
2023-03-24T10:30:33.296Z,48.66
2023-03-24T10:31:33.342Z,45.12
2023-03-24T10:32:33.314Z,51.40
2023-03-24T10:33:33.261Z,51.40
2023-03-24T10:34:33.364Z,47.21
2023-03-24T10:35:33.321Z,52.37
2023-03-24T10:36:33.257Z,43.67
2023-03-24T10:37:33.265Z,50.76
2023-03-24T10:38:33.231Z,55.27
2023-03-24T10:39:44.053Z,50.27
2023-03-24T10:40:35.213Z,40.28
2023-03-24T10:41:33.203Z,58.01
2023-03-24T10:42:33.227Z,56.40
2023-03-24T10:43:33.190Z,57.20
2023-03-24T10:44:33.175Z,54.62
2023-03-24T10:45:33.244Z,55.43
2023-03-24T10:46:33.223Z,57.52
2023-03-24T10:47:33.273Z,56.88
2023-03-24T10:48:33.227Z,56.24
2023-03-24T10:49:33.142Z,56.24
2023-03-24T10:50:33.156Z,52.21
2023-03-24T10:51:33.132Z,44.31
2023-03-24T10:52:33.119Z,47.53
2023-03-24T10:53:33.107Z,53.50
2023-03-24T10:54:33.108Z,43.51
2023-03-24T10:55:33.152Z,53.33
2023-03-24T10:56:33.099Z,44.79
2023-03-24T10:57:33.079Z,48.18
2023-03-24T10:58:33.066Z,46.08
2023-03-24T10:59:33.075Z,56.07
2023-03-24T11:00:33.091Z,54.95
2023-03-24T11:01:33.106Z,45.44
2023-03-24T11:02:33.111Z,49.15
2023-03-24T11:03:33.089Z,50.43
2023-03-24T11:04:33.017Z,51.08
2023-03-24T11:05:33.107Z,46.89
2023-03-24T11:06:33.034Z,52.21
2023-03-24T11:07:32.996Z,55.43
2023-03-24T11:08:33.025Z,51.88
2023-03-24T11:09:33.018Z,46.08
2023-03-24T11:10:33.021Z,43.18
2023-03-24T11:11:33.026Z,52.53
2023-03-24T11:12:32.975Z,54.79
2023-03-24T11:13:32.957Z,56.88
2023-03-24T11:14:32.968Z,46.89
2023-03-24T11:15:33.097Z,48.18
2023-03-24T11:16:32.976Z,48.66
2023-03-24T11:17:32.942Z,47.86
2023-03-24T11:18:32.935Z,48.50
2023-03-24T11:19:32.908Z,49.79
2023-03-24T11:20:32.926Z,55.59
2023-03-24T11:21:32.902Z,49.79
2023-03-24T11:22:32.900Z,48.98
2023-03-24T11:23:32.884Z,48.66
2023-03-24T11:24:32.901Z,46.08
2023-03-24T11:25:34.365Z,47.05
2023-03-24T11:26:33.858Z,53.33
2023-03-24T11:27:32.896Z,50.43
2023-03-24T11:28:32.830Z,47.86
2023-03-24T11:29:32.855Z,50.27
2023-03-24T11:30:32.876Z,50.76
2023-03-24T11:31:32.855Z,48.34
2023-03-24T11:32:32.812Z,49.79
2023-03-24T11:33:34.948Z,44.31
2023-03-24T11:34:32.783Z,43.67
2023-03-24T11:35:59.177Z,48.34
2023-03-24T11:36:34.940Z,55.59
2023-03-24T11:37:32.787Z,52.85
2023-03-24T11:38:32.760Z,52.53
2023-03-24T11:39:32.755Z,49.15
2023-03-24T11:40:32.749Z,45.28
2023-03-24T11:41:32.767Z,42.86
2023-03-24T11:42:32.729Z,53.82
2023-03-24T11:43:32.729Z,53.01
2023-03-24T11:44:32.717Z,55.27
2023-03-24T11:45:32.710Z,45.28
2023-03-24T11:46:32.741Z,49.63
2023-03-24T11:47:32.794Z,48.82
2023-03-24T11:48:32.680Z,54.14
2023-03-24T11:49:32.671Z,47.70
2023-03-24T11:50:32.685Z,53.01
2023-03-24T11:51:32.690Z,56.88
2023-03-24T11:52:32.658Z,47.70
2023-03-24T11:53:32.649Z,47.86
2023-03-24T11:54:33.181Z,47.86
2023-03-24T11:55:33.629Z,50.43
2023-03-24T11:56:32.687Z,53.17
2023-03-24T11:57:32.621Z,41.73
2023-03-24T11:58:32.701Z,43.51
2023-03-24T11:59:32.606Z,47.37
2023-03-24T12:00:34.341Z,53.33
2023-03-24T12:01:32.605Z,53.17
2023-03-24T12:02:32.751Z,48.82
2023-03-24T12:03:32.675Z,52.85
2023-03-24T12:04:32.563Z,53.50
2023-03-24T12:05:32.604Z,42.54
2023-03-24T12:06:32.584Z,55.43
2023-03-24T12:07:32.546Z,53.98
2023-03-24T12:08:32.541Z,50.27
2023-03-24T12:09:32.540Z,53.17
2023-03-24T12:10:32.527Z,46.57
2023-03-24T12:11:32.565Z,50.76
2023-03-24T12:12:33.519Z,53.33
2023-03-24T12:13:33.548Z,44.96
2023-03-24T12:14:32.514Z,47.21
2023-03-24T12:15:33.451Z,53.82
2023-03-24T12:16:32.580Z,50.60
2023-03-24T12:17:32.494Z,49.79
2023-03-24T12:18:32.519Z,50.76
2023-03-24T12:19:32.511Z,45.92
2023-03-24T12:20:32.448Z,49.95
2023-03-24T12:21:32.465Z,52.37
2023-03-24T12:22:32.442Z,43.83
2023-03-24T12:23:32.420Z,54.95
2023-03-24T12:24:32.492Z,54.30
2023-03-24T12:25:32.412Z,51.08
2023-03-24T12:26:32.445Z,45.28
2023-03-24T12:27:32.394Z,50.11
2023-03-24T12:28:32.384Z,49.79
2023-03-24T12:29:32.380Z,50.43
2023-03-24T12:30:32.375Z,52.05
2023-03-24T12:31:32.429Z,51.56
2023-03-24T12:32:32.396Z,52.53
2023-03-24T12:33:32.374Z,43.51
2023-03-24T12:34:32.341Z,45.12
2023-03-24T12:35:32.351Z,50.27
2023-03-24T12:36:32.346Z,48.82
2023-03-24T12:37:32.360Z,53.82
2023-03-24T12:38:32.305Z,47.70
2023-03-24T12:39:32.299Z,48.18
2023-03-24T12:40:32.336Z,54.14
2023-03-24T12:41:32.318Z,53.01
2023-03-24T12:42:32.370Z,51.08
2023-03-24T12:43:32.258Z,54.95
2023-03-24T12:44:32.261Z,52.21
2023-03-24T12:45:32.267Z,43.51
2023-03-24T12:46:46.685Z,43.51
2023-03-24T12:47:34.368Z,55.75
2023-03-24T12:48:32.222Z,43.51
2023-03-24T12:49:32.213Z,52.69
2023-03-24T12:50:32.206Z,46.89
2023-03-24T12:51:32.247Z,50.76
2023-03-24T12:52:33.198Z,46.41